sensor_id;sensor_type;location;lat;lon;timestamp;P1;durP1;ratioP1;P2;durP2;ratioP2
65387;SDS011;51992;53.528;49.474;2024-02-15T00:01:41;24.70;;;15.63;;
65387;SDS011;51992;53.528;49.474;2024-02-15T00:04:07;19.25;;;13.15;;
65387;SDS011;51992;53.528;49.474;2024-02-15T00:06:33;19.73;;;13.10;;
65387;SDS011;51992;53.528;49.474;2024-02-15T00:09:01;19.75;;;13.65;;
65387;SDS011;51992;53.528;49.474;2024-02-15T00:11:27;22.00;;;15.00;;
65387;SDS011;51992;53.528;49.474;2024-02-15T00:13:54;24.25;;;14.88;;
65387;SDS011;51992;53.528;49.474;2024-02-15T00:16:22;28.85;;;17.70;;
65387;SDS011;51992;53.528;49.474;2024-02-15T00:18:47;26.45;;;17.45;;
65387;SDS011;51992;53.528;49.474;2024-02-15T00:21:15;31.05;;;19.75;;
65387;SDS011;51992;53.528;49.474;2024-02-15T00:23:43;30.08;;;20.08;;
65387;SDS011;51992;53.528;49.474;2024-02-15T00:26:09;30.27;;;19.75;;
65387;SDS011;51992;53.528;49.474;2024-02-15T00:28:37;39.35;;;25.05;;
65387;SDS011;51992;53.528;49.474;2024-02-15T00:31:03;46.63;;;27.27;;
65387;SDS011;51992;53.528;49.474;2024-02-15T00:33:29;50.05;;;30.13;;
65387;SDS011;51992;53.528;49.474;2024-02-15T00:35:55;53.10;;;31.25;;
65387;SDS011;51992;53.528;49.474;2024-02-15T00:38:21;46.00;;;28.80;;
65387;SDS011;51992;53.528;49.474;2024-02-15T00:40:47;37.13;;;25.27;;
65387;SDS011;51992;53.528;49.474;2024-02-15T00:43:13;30.27;;;18.33;;
65387;SDS011;51992;53.528;49.474;2024-02-15T00:45:39;21.85;;;13.55;;
65387;SDS011;51992;53.528;49.474;2024-02-15T00:48:05;17.75;;;11.95;;
65387;SDS011;51992;53.528;49.474;2024-02-15T00:50:31;14.27;;;10.40;;
65387;SDS011;51992;53.528;49.474;2024-02-15T00:52:57;14.93;;;10.45;;
65387;SDS011;51992;53.528;49.474;2024-02-15T00:55:23;15.25;;;10.50;;
65387;SDS011;51992;53.528;49.474;2024-02-15T00:57:49;14.90;;;11.32;;
65387;SDS011;51992;53.528;49.474;2024-02-15T01:00:15;17.02;;;11.32;;
65387;SDS011;51992;53.528;49.474;2024-02-15T01:02:41;17.30;;;11.70;;
65387;SDS011;51992;53.528;49.474;2024-02-15T01:05:06;17.80;;;11.77;;
65387;SDS011;51992;53.528;49.474;2024-02-15T01:07:32;24.67;;;16.50;;
65387;SDS011;51992;53.528;49.474;2024-02-15T01:09:58;30.67;;;19.48;;
65387;SDS011;51992;53.528;49.474;2024-02-15T01:12:24;31.65;;;21.45;;
65387;SDS011;51992;53.528;49.474;2024-02-15T01:14:50;31.52;;;22.15;;
65387;SDS011;51992;53.528;49.474;2024-02-15T01:17:16;34.33;;;23.85;;
65387;SDS011;51992;53.528;49.474;2024-02-15T01:19:42;28.60;;;20.08;;
65387;SDS011;51992;53.528;49.474;2024-02-15T01:22:08;28.67;;;18.80;;
65387;SDS011;51992;53.528;49.474;2024-02-15T01:24:34;20.67;;;14.38;;
65387;SDS011;51992;53.528;49.474;2024-02-15T01:27:00;24.02;;;15.50;;
65387;SDS011;51992;53.528;49.474;2024-02-15T01:29:26;23.35;;;14.30;;
65387;SDS011;51992;53.528;49.474;2024-02-15T01:31:52;21.73;;;14.82;;
65387;SDS011;51992;53.528;49.474;2024-02-15T01:34:18;27.45;;;16.73;;
65387;SDS011;51992;53.528;49.474;2024-02-15T01:36:46;25.83;;;16.88;;
65387;SDS011;51992;53.528;49.474;2024-02-15T01:39:13;21.67;;;13.75;;
65387;SDS011;51992;53.528;49.474;2024-02-15T01:41:38;20.52;;;13.70;;
65387;SDS011;51992;53.528;49.474;2024-02-15T01:44:04;20.33;;;14.85;;
65387;SDS011;51992;53.528;49.474;2024-02-15T01:46:31;20.13;;;13.25;;
65387;SDS011;51992;53.528;49.474;2024-02-15T01:48:57;14.15;;;10.60;;
65387;SDS011;51992;53.528;49.474;2024-02-15T01:51:23;12.85;;;9.35;;
65387;SDS011;51992;53.528;49.474;2024-02-15T01:53:51;10.60;;;8.27;;
65387;SDS011;51992;53.528;49.474;2024-02-15T01:56:18;13.02;;;8.27;;
65387;SDS011;51992;53.528;49.474;2024-02-15T01:58:45;10.27;;;7.93;;
65387;SDS011;51992;53.528;49.474;2024-02-15T02:01:11;10.95;;;7.75;;
65387;SDS011;51992;53.528;49.474;2024-02-15T02:03:38;9.10;;;7.78;;
65387;SDS011;51992;53.528;49.474;2024-02-15T02:06:04;11.20;;;7.95;;
65387;SDS011;51992;53.528;49.474;2024-02-15T02:08:30;11.30;;;7.55;;
65387;SDS011;51992;53.528;49.474;2024-02-15T02:10:56;10.77;;;7.63;;
65387;SDS011;51992;53.528;49.474;2024-02-15T02:13:22;10.25;;;8.20;;
65387;SDS011;51992;53.528;49.474;2024-02-15T02:15:48;12.68;;;8.73;;
65387;SDS011;51992;53.528;49.474;2024-02-15T02:18:15;11.88;;;8.35;;
65387;SDS011;51992;53.528;49.474;2024-02-15T02:20:41;11.82;;;8.07;;
65387;SDS011;51992;53.528;49.474;2024-02-15T02:23:13;10.60;;;7.47;;
65387;SDS011;51992;53.528;49.474;2024-02-15T02:25:39;9.93;;;7.75;;
65387;SDS011;51992;53.528;49.474;2024-02-15T02:28:06;9.90;;;7.43;;
65387;SDS011;51992;53.528;49.474;2024-02-15T02:30:32;9.30;;;7.35;;
65387;SDS011;51992;53.528;49.474;2024-02-15T02:32:58;11.02;;;7.43;;
65387;SDS011;51992;53.528;49.474;2024-02-15T02:35:25;11.13;;;7.75;;
65387;SDS011;51992;53.528;49.474;2024-02-15T02:37:51;11.77;;;7.43;;
65387;SDS011;51992;53.528;49.474;2024-02-15T02:40:18;9.82;;;7.68;;
65387;SDS011;51992;53.528;49.474;2024-02-15T02:42:52;9.52;;;6.97;;
65387;SDS011;51992;53.528;49.474;2024-02-15T02:45:19;10.15;;;7.95;;
65387;SDS011;51992;53.528;49.474;2024-02-15T02:47:45;9.65;;;7.30;;
65387;SDS011;51992;53.528;49.474;2024-02-15T02:50:12;9.35;;;7.43;;
65387;SDS011;51992;53.528;49.474;2024-02-15T02:52:39;10.15;;;7.60;;
65387;SDS011;51992;53.528;49.474;2024-02-15T02:55:05;9.75;;;7.30;;
65387;SDS011;51992;53.528;49.474;2024-02-15T02:57:34;9.30;;;6.88;;
65387;SDS011;51992;53.528;49.474;2024-02-15T03:00:06;10.85;;;6.95;;
65387;SDS011;51992;53.528;49.474;2024-02-15T03:02:38;9.88;;;6.90;;
65387;SDS011;51992;53.528;49.474;2024-02-15T03:05:04;9.40;;;6.95;;
65387;SDS011;51992;53.528;49.474;2024-02-15T03:07:32;9.55;;;6.88;;
65387;SDS011;51992;53.528;49.474;2024-02-15T03:09:58;11.10;;;6.60;;
65387;SDS011;51992;53.528;49.474;2024-02-15T03:12:24;7.95;;;6.45;;
65387;SDS011;51992;53.528;49.474;2024-02-15T03:14:52;9.32;;;7.15;;
65387;SDS011;51992;53.528;49.474;2024-02-15T03:17:18;8.88;;;6.63;;
65387;SDS011;51992;53.528;49.474;2024-02-15T03:19:44;8.80;;;6.70;;
65387;SDS011;51992;53.528;49.474;2024-02-15T03:22:09;11.02;;;6.95;;
65387;SDS011;51992;53.528;49.474;2024-02-15T03:24:39;12.38;;;6.75;;
65387;SDS011;51992;53.528;49.474;2024-02-15T03:27:05;10.43;;;7.57;;
65387;SDS011;51992;53.528;49.474;2024-02-15T03:29:31;11.30;;;9.30;;
65387;SDS011;51992;53.528;49.474;2024-02-15T03:31:57;11.70;;;9.25;;
65387;SDS011;51992;53.528;49.474;2024-02-15T03:34:22;11.55;;;9.20;;
65387;SDS011;51992;53.528;49.474;2024-02-15T03:36:49;12.43;;;9.25;;
65387;SDS011;51992;53.528;49.474;2024-02-15T03:39:19;10.20;;;8.32;;
65387;SDS011;51992;53.528;49.474;2024-02-15T03:41:45;11.18;;;8.95;;
65387;SDS011;51992;53.528;49.474;2024-02-15T03:44:11;12.63;;;8.38;;
65387;SDS011;51992;53.528;49.474;2024-02-15T03:46:37;13.25;;;8.57;;
65387;SDS011;51992;53.528;49.474;2024-02-15T03:49:03;11.48;;;7.97;;
65387;SDS011;51992;53.528;49.474;2024-02-15T03:51:29;10.48;;;6.93;;
65387;SDS011;51992;53.528;49.474;2024-02-15T03:53:55;9.52;;;7.25;;
65387;SDS011;51992;53.528;49.474;2024-02-15T03:56:21;11.07;;;7.45;;
65387;SDS011;51992;53.528;49.474;2024-02-15T03:58:47;10.50;;;7.82;;
65387;SDS011;51992;53.528;49.474;2024-02-15T04:01:16;12.27;;;8.25;;
65387;SDS011;51992;53.528;49.474;2024-02-15T04:03:42;10.45;;;7.55;;
65387;SDS011;51992;53.528;49.474;2024-02-15T04:06:08;7.75;;;6.95;;
65387;SDS011;51992;53.528;49.474;2024-02-15T04:08:35;8.55;;;6.90;;
65387;SDS011;51992;53.528;49.474;2024-02-15T04:11:05;11.98;;;7.38;;
65387;SDS011;51992;53.528;49.474;2024-02-15T04:13:33;9.93;;;6.95;;
65387;SDS011;51992;53.528;49.474;2024-02-15T04:15:59;9.82;;;7.35;;
65387;SDS011;51992;53.528;49.474;2024-02-15T04:18:24;10.95;;;7.90;;
65387;SDS011;51992;53.528;49.474;2024-02-15T04:20:50;8.82;;;7.32;;
65387;SDS011;51992;53.528;49.474;2024-02-15T04:23:16;10.80;;;7.63;;
65387;SDS011;51992;53.528;49.474;2024-02-15T04:25:42;9.32;;;7.30;;
65387;SDS011;51992;53.528;49.474;2024-02-15T04:28:12;10.02;;;7.55;;
65387;SDS011;51992;53.528;49.474;2024-02-15T04:30:38;9.70;;;7.95;;
65387;SDS011;51992;53.528;49.474;2024-02-15T04:33:04;10.73;;;7.95;;
65387;SDS011;51992;53.528;49.474;2024-02-15T04:35:31;11.63;;;8.15;;
65387;SDS011;51992;53.528;49.474;2024-02-15T04:37:56;12.80;;;8.52;;
65387;SDS011;51992;53.528;49.474;2024-02-15T04:40:23;11.45;;;8.82;;
65387;SDS011;51992;53.528;49.474;2024-02-15T04:42:49;10.27;;;8.52;;
65387;SDS011;51992;53.528;49.474;2024-02-15T04:45:15;10.63;;;7.68;;
65387;SDS011;51992;53.528;49.474;2024-02-15T04:47:41;12.00;;;8.27;;
65387;SDS011;51992;53.528;49.474;2024-02-15T04:50:07;9.43;;;7.90;;
65387;SDS011;51992;53.528;49.474;2024-02-15T04:52:33;10.27;;;8.15;;
65387;SDS011;51992;53.528;49.474;2024-02-15T04:54:59;11.00;;;8.88;;
65387;SDS011;51992;53.528;49.474;2024-02-15T04:57:25;12.80;;;8.40;;
65387;SDS011;51992;53.528;49.474;2024-02-15T04:59:54;13.10;;;8.55;;
65387;SDS011;51992;53.528;49.474;2024-02-15T05:02:19;14.80;;;9.65;;
65387;SDS011;51992;53.528;49.474;2024-02-15T05:04:47;13.00;;;10.13;;
65387;SDS011;51992;53.528;49.474;2024-02-15T05:07:13;12.20;;;9.38;;
65387;SDS011;51992;53.528;49.474;2024-02-15T05:09:42;12.65;;;10.00;;
65387;SDS011;51992;53.528;49.474;2024-02-15T05:12:08;12.75;;;9.75;;
65387;SDS011;51992;53.528;49.474;2024-02-15T05:14:34;13.40;;;10.35;;
65387;SDS011;51992;53.528;49.474;2024-02-15T05:17:01;14.73;;;9.80;;
65387;SDS011;51992;53.528;49.474;2024-02-15T05:19:27;13.60;;;9.45;;
65387;SDS011;51992;53.528;49.474;2024-02-15T05:21:55;12.90;;;10.38;;
65387;SDS011;51992;53.528;49.474;2024-02-15T05:24:21;16.08;;;10.50;;
65387;SDS011;51992;53.528;49.474;2024-02-15T05:26:47;13.93;;;10.02;;
65387;SDS011;51992;53.528;49.474;2024-02-15T05:29:14;13.50;;;9.52;;
65387;SDS011;51992;53.528;49.474;2024-02-15T05:31:40;12.57;;;8.50;;
65387;SDS011;51992;53.528;49.474;2024-02-15T05:34:06;12.07;;;8.25;;
65387;SDS011;51992;53.528;49.474;2024-02-15T05:36:36;11.05;;;8.70;;
65387;SDS011;51992;53.528;49.474;2024-02-15T05:39:03;14.85;;;11.13;;
65387;SDS011;51992;53.528;49.474;2024-02-15T05:41:30;16.42;;;11.63;;
65387;SDS011;51992;53.528;49.474;2024-02-15T05:43:58;48.38;;;28.23;;
65387;SDS011;51992;53.528;49.474;2024-02-15T05:46:23;15.32;;;10.43;;
65387;SDS011;51992;53.528;49.474;2024-02-15T05:48:50;15.68;;;11.10;;
65387;SDS011;51992;53.528;49.474;2024-02-15T05:51:17;9.18;;;6.82;;
65387;SDS011;51992;53.528;49.474;2024-02-15T05:53:43;21.20;;;17.63;;
65387;SDS011;51992;53.528;49.474;2024-02-15T05:56:09;35.88;;;26.70;;
65387;SDS011;51992;53.528;49.474;2024-02-15T05:58:37;38.05;;;28.27;;
65387;SDS011;51992;53.528;49.474;2024-02-15T06:01:05;15.15;;;10.07;;
65387;SDS011;51992;53.528;49.474;2024-02-15T06:03:33;15.15;;;12.50;;
65387;SDS011;51992;53.528;49.474;2024-02-15T06:06:02;9.52;;;7.70;;
65387;SDS011;51992;53.528;49.474;2024-02-15T06:08:32;22.50;;;18.00;;
65387;SDS011;51992;53.528;49.474;2024-02-15T06:10:58;23.10;;;19.20;;
65387;SDS011;51992;53.528;49.474;2024-02-15T06:13:26;10.35;;;8.27;;
65387;SDS011;51992;53.528;49.474;2024-02-15T06:15:53;9.68;;;6.63;;
65387;SDS011;51992;53.528;49.474;2024-02-15T06:18:20;25.80;;;20.98;;
65387;SDS011;51992;53.528;49.474;2024-02-15T06:20:50;23.58;;;15.30;;
65387;SDS011;51992;53.528;49.474;2024-02-15T06:23:17;78.97;;;32.80;;
65387;SDS011;51992;53.528;49.474;2024-02-15T06:25:43;76.25;;;29.90;;
65387;SDS011;51992;53.528;49.474;2024-02-15T06:28:09;57.38;;;26.98;;
65387;SDS011;51992;53.528;49.474;2024-02-15T06:30:54;80.75;;;37.00;;
65387;SDS011;51992;53.528;49.474;2024-02-15T06:33:38;26.92;;;17.02;;
65387;SDS011;51992;53.528;49.474;2024-02-15T06:36:22;39.70;;;29.17;;
65387;SDS011;51992;53.528;49.474;2024-02-15T06:39:14;20.63;;;14.55;;
65387;SDS011;51992;53.528;49.474;2024-02-15T06:41:59;59.42;;;51.55;;
65387;SDS011;51992;53.528;49.474;2024-02-15T06:44:27;26.73;;;18.48;;
65387;SDS011;51992;53.528;49.474;2024-02-15T06:46:52;25.17;;;16.13;;
65387;SDS011;51992;53.528;49.474;2024-02-15T06:49:18;26.35;;;17.48;;
65387;SDS011;51992;53.528;49.474;2024-02-15T06:51:47;39.60;;;26.38;;
65387;SDS011;51992;53.528;49.474;2024-02-15T06:54:13;32.50;;;22.30;;
65387;SDS011;51992;53.528;49.474;2024-02-15T06:56:39;33.38;;;21.58;;
65387;SDS011;51992;53.528;49.474;2024-02-15T06:59:05;49.67;;;31.42;;
65387;SDS011;51992;53.528;49.474;2024-02-15T07:01:31;43.58;;;28.38;;
65387;SDS011;51992;53.528;49.474;2024-02-15T07:04:00;41.10;;;27.50;;
65387;SDS011;51992;53.528;49.474;2024-02-15T07:06:27;61.50;;;42.55;;
65387;SDS011;51992;53.528;49.474;2024-02-15T07:08:53;44.67;;;27.58;;
65387;SDS011;51992;53.528;49.474;2024-02-15T07:11:22;95.68;;;69.38;;
65387;SDS011;51992;53.528;49.474;2024-02-15T07:13:48;54.05;;;36.35;;
65387;SDS011;51992;53.528;49.474;2024-02-15T07:16:14;99.72;;;58.65;;
65387;SDS011;51992;53.528;49.474;2024-02-15T07:18:41;64.05;;;42.60;;
65387;SDS011;51992;53.528;49.474;2024-02-15T07:21:07;80.10;;;48.10;;
65387;SDS011;51992;53.528;49.474;2024-02-15T07:23:42;35.83;;;25.20;;
65387;SDS011;51992;53.528;49.474;2024-02-15T07:26:08;62.60;;;36.55;;
65387;SDS011;51992;53.528;49.474;2024-02-15T07:28:34;56.28;;;33.45;;
65387;SDS011;51992;53.528;49.474;2024-02-15T07:31:00;60.40;;;33.97;;
65387;SDS011;51992;53.528;49.474;2024-02-15T07:33:28;31.63;;;19.40;;
65387;SDS011;51992;53.528;49.474;2024-02-15T07:35:54;103.93;;;53.50;;
65387;SDS011;51992;53.528;49.474;2024-02-15T07:38:22;51.50;;;30.38;;
65387;SDS011;51992;53.528;49.474;2024-02-15T07:40:51;87.03;;;52.97;;
65387;SDS011;51992;53.528;49.474;2024-02-15T07:43:16;54.90;;;34.90;;
65387;SDS011;51992;53.528;49.474;2024-02-15T07:45:42;42.53;;;27.98;;
65387;SDS011;51992;53.528;49.474;2024-02-15T07:48:08;39.95;;;25.60;;
65387;SDS011;51992;53.528;49.474;2024-02-15T07:50:34;33.67;;;19.30;;
65387;SDS011;51992;53.528;49.474;2024-02-15T07:53:03;36.50;;;22.63;;
65387;SDS011;51992;53.528;49.474;2024-02-15T07:55:30;30.85;;;15.73;;
65387;SDS011;51992;53.528;49.474;2024-02-15T07:57:56;54.53;;;21.13;;
65387;SDS011;51992;53.528;49.474;2024-02-15T08:00:24;59.05;;;21.63;;
65387;SDS011;51992;53.528;49.474;2024-02-15T08:02:52;100.35;;;30.95;;
65387;SDS011;51992;53.528;49.474;2024-02-15T08:05:19;134.95;;;33.45;;
65387;SDS011;51992;53.528;49.474;2024-02-15T08:07:46;81.97;;;25.02;;
65387;SDS011;51992;53.528;49.474;2024-02-15T08:10:13;133.90;;;30.20;;
65387;SDS011;51992;53.528;49.474;2024-02-15T08:12:40;106.68;;;24.88;;
65387;SDS011;51992;53.528;49.474;2024-02-15T08:15:06;57.03;;;22.38;;
65387;SDS011;51992;53.528;49.474;2024-02-15T08:17:46;37.33;;;15.80;;
65387;SDS011;51992;53.528;49.474;2024-02-15T08:20:12;45.25;;;20.05;;
65387;SDS011;51992;53.528;49.474;2024-02-15T08:22:38;78.88;;;33.20;;
65387;SDS011;51992;53.528;49.474;2024-02-15T08:25:08;68.65;;;35.92;;
65387;SDS011;51992;53.528;49.474;2024-02-15T08:27:39;60.72;;;29.42;;
65387;SDS011;51992;53.528;49.474;2024-02-15T08:30:10;48.83;;;24.50;;
65387;SDS011;51992;53.528;49.474;2024-02-15T08:32:39;56.25;;;25.65;;
65387;SDS011;51992;53.528;49.474;2024-02-15T08:35:07;44.35;;;20.30;;
65387;SDS011;51992;53.528;49.474;2024-02-15T08:37:37;28.38;;;17.17;;
65387;SDS011;51992;53.528;49.474;2024-02-15T08:40:04;46.85;;;21.42;;
65387;SDS011;51992;53.528;49.474;2024-02-15T08:42:30;50.25;;;18.52;;
65387;SDS011;51992;53.528;49.474;2024-02-15T08:44:57;91.35;;;23.85;;
65387;SDS011;51992;53.528;49.474;2024-02-15T08:47:22;35.63;;;15.20;;
65387;SDS011;51992;53.528;49.474;2024-02-15T08:49:48;24.88;;;14.18;;
65387;SDS011;51992;53.528;49.474;2024-02-15T08:52:14;23.40;;;12.40;;
65387;SDS011;51992;53.528;49.474;2024-02-15T08:54:42;20.05;;;12.13;;
65387;SDS011;51992;53.528;49.474;2024-02-15T08:57:08;21.20;;;12.63;;
65387;SDS011;51992;53.528;49.474;2024-02-15T08:59:34;27.13;;;14.10;;
65387;SDS011;51992;53.528;49.474;2024-02-15T09:02:00;21.58;;;13.32;;
65387;SDS011;51992;53.528;49.474;2024-02-15T09:04:26;24.23;;;12.93;;
65387;SDS011;51992;53.528;49.474;2024-02-15T09:06:52;34.88;;;19.75;;
65387;SDS011;51992;53.528;49.474;2024-02-15T09:09:18;48.17;;;27.42;;
65387;SDS011;51992;53.528;49.474;2024-02-15T09:11:44;26.40;;;13.43;;
65387;SDS011;51992;53.528;49.474;2024-02-15T09:14:10;23.75;;;13.05;;
65387;SDS011;51992;53.528;49.474;2024-02-15T09:16:36;36.92;;;17.90;;
65387;SDS011;51992;53.528;49.474;2024-02-15T09:19:01;57.25;;;24.55;;
65387;SDS011;51992;53.528;49.474;2024-02-15T09:21:27;57.10;;;29.65;;
65387;SDS011;51992;53.528;49.474;2024-02-15T09:26:58;27.23;;;11.88;;
65387;SDS011;51992;53.528;49.474;2024-02-15T09:29:24;20.02;;;11.70;;
65387;SDS011;51992;53.528;49.474;2024-02-15T09:31:50;22.40;;;12.15;;
65387;SDS011;51992;53.528;49.474;2024-02-15T09:34:15;27.60;;;14.55;;
65387;SDS011;51992;53.528;49.474;2024-02-15T09:36:41;25.95;;;13.43;;
65387;SDS011;51992;53.528;49.474;2024-02-15T09:39:07;25.30;;;14.30;;
65387;SDS011;51992;53.528;49.474;2024-02-15T09:41:33;27.13;;;14.13;;
65387;SDS011;51992;53.528;49.474;2024-02-15T09:44:01;20.80;;;11.90;;
65387;SDS011;51992;53.528;49.474;2024-02-15T09:46:29;26.88;;;16.67;;
65387;SDS011;51992;53.528;49.474;2024-02-15T09:48:55;24.23;;;13.30;;
65387;SDS011;51992;53.528;49.474;2024-02-15T09:51:25;26.75;;;14.43;;
65387;SDS011;51992;53.528;49.474;2024-02-15T09:53:52;44.53;;;20.45;;
65387;SDS011;51992;53.528;49.474;2024-02-15T09:56:19;41.45;;;18.17;;
65387;SDS011;51992;53.528;49.474;2024-02-15T09:58:47;21.50;;;11.85;;
65387;SDS011;51992;53.528;49.474;2024-02-15T10:01:13;22.17;;;12.52;;
65387;SDS011;51992;53.528;49.474;2024-02-15T10:03:39;24.52;;;12.05;;
65387;SDS011;51992;53.528;49.474;2024-02-15T10:06:08;22.75;;;11.63;;
65387;SDS011;51992;53.528;49.474;2024-02-15T10:08:34;24.83;;;12.15;;
65387;SDS011;51992;53.528;49.474;2024-02-15T10:11:09;25.05;;;12.32;;
65387;SDS011;51992;53.528;49.474;2024-02-15T10:13:35;23.75;;;13.30;;
65387;SDS011;51992;53.528;49.474;2024-02-15T10:16:17;27.50;;;14.63;;
65387;SDS011;51992;53.528;49.474;2024-02-15T10:18:47;36.05;;;14.25;;
65387;SDS011;51992;53.528;49.474;2024-02-15T10:21:28;34.25;;;18.33;;
65387;SDS011;51992;53.528;49.474;2024-02-15T10:24:02;33.63;;;19.63;;
65387;SDS011;51992;53.528;49.474;2024-02-15T10:26:30;42.22;;;24.50;;
65387;SDS011;51992;53.528;49.474;2024-02-15T10:29:10;36.72;;;21.13;;
65387;SDS011;51992;53.528;49.474;2024-02-15T10:31:40;14.57;;;8.80;;
65387;SDS011;51992;53.528;49.474;2024-02-15T10:34:17;17.70;;;11.70;;
65387;SDS011;51992;53.528;49.474;2024-02-15T10:36:44;8.38;;;4.85;;
65387;SDS011;51992;53.528;49.474;2024-02-15T10:39:14;5.88;;;3.45;;
65387;SDS011;51992;53.528;49.474;2024-02-15T10:41:49;5.97;;;3.65;;
65387;SDS011;51992;53.528;49.474;2024-02-15T10:44:16;8.02;;;4.30;;
65387;SDS011;51992;53.528;49.474;2024-02-15T10:46:43;6.95;;;3.80;;
65387;SDS011;51992;53.528;49.474;2024-02-15T10:49:10;5.38;;;3.55;;
65387;SDS011;51992;53.528;49.474;2024-02-15T10:51:36;20.77;;;11.13;;
65387;SDS011;51992;53.528;49.474;2024-02-15T10:54:07;11.95;;;6.72;;
65387;SDS011;51992;53.528;49.474;2024-02-15T10:56:36;7.97;;;4.40;;
65387;SDS011;51992;53.528;49.474;2024-02-15T10:59:19;8.40;;;4.25;;
65387;SDS011;51992;53.528;49.474;2024-02-15T11:01:49;5.13;;;3.00;;
65387;SDS011;51992;53.528;49.474;2024-02-15T11:06:52;5.50;;;2.60;;
65387;SDS011;51992;53.528;49.474;2024-02-15T11:09:21;9.13;;;4.15;;
65387;SDS011;51992;53.528;49.474;2024-02-15T11:11:47;8.82;;;5.00;;
65387;SDS011;51992;53.528;49.474;2024-02-15T11:14:23;6.90;;;3.78;;
65387;SDS011;51992;53.528;49.474;2024-02-15T11:16:48;8.13;;;4.32;;
65387;SDS011;51992;53.528;49.474;2024-02-15T11:21:59;8.77;;;5.60;;
65387;SDS011;51992;53.528;49.474;2024-02-15T11:24:32;14.23;;;6.90;;
65387;SDS011;51992;53.528;49.474;2024-02-15T11:32:08;9.30;;;5.60;;
65387;SDS011;51992;53.528;49.474;2024-02-15T11:34:44;11.90;;;7.90;;
65387;SDS011;51992;53.528;49.474;2024-02-15T11:39:59;16.65;;;9.25;;
65387;SDS011;51992;53.528;49.474;2024-02-15T11:42:25;13.10;;;7.97;;
65387;SDS011;51992;53.528;49.474;2024-02-15T11:45:04;13.13;;;8.23;;
65387;SDS011;51992;53.528;49.474;2024-02-15T11:47:38;9.95;;;6.13;;
65387;SDS011;51992;53.528;49.474;2024-02-15T11:50:07;11.48;;;6.75;;
65387;SDS011;51992;53.528;49.474;2024-02-15T11:52:35;11.25;;;6.22;;
65387;SDS011;51992;53.528;49.474;2024-02-15T11:55:04;12.68;;;7.00;;
65387;SDS011;51992;53.528;49.474;2024-02-15T11:57:30;11.38;;;7.38;;
65387;SDS011;51992;53.528;49.474;2024-02-15T12:00:20;12.77;;;7.43;;
65387;SDS011;51992;53.528;49.474;2024-02-15T12:03:05;16.13;;;10.48;;
65387;SDS011;51992;53.528;49.474;2024-02-15T12:05:49;11.82;;;7.88;;
65387;SDS011;51992;53.528;49.474;2024-02-15T12:08:34;12.63;;;7.75;;
65387;SDS011;51992;53.528;49.474;2024-02-15T12:11:19;14.30;;;8.70;;
65387;SDS011;51992;53.528;49.474;2024-02-15T12:14:03;14.32;;;8.15;;
65387;SDS011;51992;53.528;49.474;2024-02-15T12:16:58;14.55;;;8.35;;
65387;SDS011;51992;53.528;49.474;2024-02-15T12:19:42;14.25;;;7.32;;
65387;SDS011;51992;53.528;49.474;2024-02-15T12:22:09;13.52;;;8.07;;
65387;SDS011;51992;53.528;49.474;2024-02-15T12:24:35;14.65;;;8.52;;
65387;SDS011;51992;53.528;49.474;2024-02-15T12:27:01;12.05;;;7.65;;
65387;SDS011;51992;53.528;49.474;2024-02-15T12:29:31;12.52;;;7.93;;
65387;SDS011;51992;53.528;49.474;2024-02-15T12:32:01;14.32;;;8.13;;
65387;SDS011;51992;53.528;49.474;2024-02-15T12:34:28;13.63;;;8.43;;
65387;SDS011;51992;53.528;49.474;2024-02-15T12:37:04;13.40;;;8.32;;
65387;SDS011;51992;53.528;49.474;2024-02-15T12:39:31;14.15;;;8.68;;
65387;SDS011;51992;53.528;49.474;2024-02-15T12:41:57;12.35;;;8.32;;
65387;SDS011;51992;53.528;49.474;2024-02-15T12:44:23;13.82;;;8.93;;
65387;SDS011;51992;53.528;49.474;2024-02-15T12:46:53;16.42;;;9.80;;
65387;SDS011;51992;53.528;49.474;2024-02-15T12:51:50;22.45;;;12.82;;
65387;SDS011;51992;53.528;49.474;2024-02-15T12:54:21;22.23;;;12.30;;
65387;SDS011;51992;53.528;49.474;2024-02-15T12:56:47;19.00;;;10.52;;
65387;SDS011;51992;53.528;49.474;2024-02-15T12:59:22;19.25;;;9.27;;
65387;SDS011;51992;53.528;49.474;2024-02-15T13:01:49;32.58;;;21.30;;
65387;SDS011;51992;53.528;49.474;2024-02-15T13:04:23;60.22;;;38.35;;
65387;SDS011;51992;53.528;49.474;2024-02-15T13:06:50;207.18;;;116.15;;
65387;SDS011;51992;53.528;49.474;2024-02-15T13:09:15;71.07;;;38.30;;
65387;SDS011;51992;53.528;49.474;2024-02-15T13:11:41;24.00;;;15.23;;
65387;SDS011;51992;53.528;49.474;2024-02-15T13:14:11;13.15;;;9.07;;
65387;SDS011;51992;53.528;49.474;2024-02-15T13:16:36;9.48;;;6.75;;
65387;SDS011;51992;53.528;49.474;2024-02-15T13:19:02;94.60;;;74.45;;
65387;SDS011;51992;53.528;49.474;2024-02-15T13:21:29;203.18;;;142.23;;
65387;SDS011;51992;53.528;49.474;2024-02-15T13:23:56;61.42;;;46.35;;
65387;SDS011;51992;53.528;49.474;2024-02-15T13:26:21;125.88;;;88.72;;
65387;SDS011;51992;53.528;49.474;2024-02-15T13:28:54;58.95;;;47.35;;
65387;SDS011;51992;53.528;49.474;2024-02-15T13:31:20;50.00;;;42.97;;
65387;SDS011;51992;53.528;49.474;2024-02-15T13:33:47;52.63;;;47.05;;
65387;SDS011;51992;53.528;49.474;2024-02-15T13:36:13;59.53;;;52.42;;
65387;SDS011;51992;53.528;49.474;2024-02-15T13:38:41;66.72;;;59.47;;
65387;SDS011;51992;53.528;49.474;2024-02-15T13:41:07;60.25;;;49.72;;
65387;SDS011;51992;53.528;49.474;2024-02-15T13:43:34;31.00;;;25.13;;
65387;SDS011;51992;53.528;49.474;2024-02-15T13:45:59;19.00;;;12.02;;
65387;SDS011;51992;53.528;49.474;2024-02-15T13:48:29;110.03;;;72.85;;
65387;SDS011;51992;53.528;49.474;2024-02-15T13:50:55;29.30;;;22.33;;
65387;SDS011;51992;53.528;49.474;2024-02-15T13:53:21;35.55;;;25.80;;
65387;SDS011;51992;53.528;49.474;2024-02-15T13:55:47;50.38;;;31.55;;
65387;SDS011;51992;53.528;49.474;2024-02-15T13:58:13;46.13;;;25.83;;
65387;SDS011;51992;53.528;49.474;2024-02-15T14:00:39;30.30;;;17.17;;
65387;SDS011;51992;53.528;49.474;2024-02-15T14:03:07;20.73;;;12.27;;
65387;SDS011;51992;53.528;49.474;2024-02-15T14:05:35;40.42;;;26.45;;
65387;SDS011;51992;53.528;49.474;2024-02-15T14:08:02;31.13;;;16.35;;
65387;SDS011;51992;53.528;49.474;2024-02-15T14:10:29;16.45;;;9.57;;
65387;SDS011;51992;53.528;49.474;2024-02-15T14:12:55;28.52;;;16.30;;
65387;SDS011;51992;53.528;49.474;2024-02-15T14:15:21;68.90;;;36.92;;
65387;SDS011;51992;53.528;49.474;2024-02-15T14:17:47;81.20;;;41.63;;
65387;SDS011;51992;53.528;49.474;2024-02-15T14:20:13;119.80;;;73.05;;
65387;SDS011;51992;53.528;49.474;2024-02-15T14:22:46;203.23;;;96.75;;
65387;SDS011;51992;53.528;49.474;2024-02-15T14:25:15;114.90;;;54.00;;
65387;SDS011;51992;53.528;49.474;2024-02-15T14:27:41;144.07;;;61.40;;
65387;SDS011;51992;53.528;49.474;2024-02-15T14:30:08;121.00;;;47.80;;
65387;SDS011;51992;53.528;49.474;2024-02-15T14:32:52;68.47;;;28.92;;
65387;SDS011;51992;53.528;49.474;2024-02-15T14:35:34;106.25;;;44.55;;
65387;SDS011;51992;53.528;49.474;2024-02-15T14:38:04;65.38;;;27.25;;
65387;SDS011;51992;53.528;49.474;2024-02-15T14:40:35;61.40;;;26.67;;